Time;durP1;ratioP1;P1;durP2;ratioP2;P2;SDS_P1;SDS_P2;PMS_P1;PMS_P2;Temp;Humidity;BMP_temperature;BMP_pressure;BME280_temperature;BME280_humidity;BME280_pressure;Samples;Min_cycle;Max_cycle;Signal;HPM_P1;HPM_P2
2023/06/22 00:01:48;;;;;;;13.90;12.60;;;;;;;19.90;73.49;93277.16;5070711;28;20203;-75
2023/06/22 00:04:14;;;;;;;13.43;12.27;;;;;;;19.79;72.92;93244.16;5069524;28;20198;-75
2023/06/22 00:06:39;;;;;;;12.87;11.67;;;;;;;20.09;72.71;93274.09;5070556;28;20232;-74
2023/06/22 00:09:06;;;;;;;13.60;12.57;;;;;;;20.08;73.61;93272.53;5068523;28;20180;-73
2023/06/22 00:11:33;;;;;;;14.70;13.33;;;;;;;19.96;74.50;93275.88;5082624;28;20185;-74
2023/06/22 00:13:58;;;;;;;15.23;13.83;;;;;;;19.94;74.50;93272.75;5069938;28;20194;-74
2023/06/22 00:16:24;;;;;;;13.37;12.17;;;;;;;20.05;74.00;93276.59;5069232;28;20219;-74
2023/06/22 00:18:49;;;;;;;12.80;11.70;;;;;;;19.84;73.38;93262.53;5069774;28;20186;-74
2023/06/22 00:21:15;;;;;;;13.60;12.60;;;;;;;19.88;72.66;93262.66;5068536;28;20238;-74
2023/06/22 00:23:41;;;;;;;13.70;12.50;;;;;;;19.89;71.95;93262.31;5070009;28;20187;-74
2023/06/22 00:26:06;;;;;;;13.37;12.17;;;;;;;19.93;73.25;93259.81;5069235;28;20240;-74
2023/06/22 00:28:32;;;;;;;13.07;12.07;;;;;;;19.80;72.30;93235.09;5074935;28;20242;-74
2023/06/22 00:30:57;;;;;;;13.67;12.63;;;;;;;19.84;72.29;93245.84;5077115;28;20266;-73
2023/06/22 00:33:23;;;;;;;13.97;12.87;;;;;;;19.86;71.40;93239.13;5068867;28;20177;-74
2023/06/22 00:35:48;;;;;;;13.63;12.53;;;;;;;19.98;70.79;93241.88;5070442;28;20287;-74
2023/06/22 00:38:13;;;;;;;13.97;12.87;;;;;;;19.92;70.54;93239.72;5068233;28;20187;-73
2023/06/22 00:40:39;;;;;;;12.90;11.80;;;;;;;19.92;71.64;93240.47;5052299;28;20238;-74
2023/06/22 00:43:05;;;;;;;13.53;12.43;;;;;;;19.85;72.17;93242.88;5072815;28;20268;-73
2023/06/22 00:45:31;;;;;;;13.87;12.77;;;;;;;19.84;71.58;93240.53;5071362;28;20223;-74
2023/06/22 00:47:57;;;;;;;13.70;12.70;;;;;;;19.83;70.44;93246.94;5072491;28;20739;-74
2023/06/22 00:50:25;;;;;;;13.07;11.90;;;;;;;19.93;70.42;93246.56;5060753;28;20258;-74
2023/06/22 00:52:53;;;;;;;12.93;11.73;;;;;;;20.04;70.18;93245.09;5053024;28;20256;-73
2023/06/22 00:55:20;;;;;;;13.33;12.00;;;;;;;20.02;70.80;93248.09;5052086;28;20223;-74
2023/06/22 00:57:47;;;;;;;13.60;12.60;;;;;;;20.05;70.49;93247.44;5052726;28;20193;-73
2023/06/22 01:00:16;;;;;;;12.90;11.87;;;;;;;19.77;71.19;93243.69;5051719;28;20219;-73
2023/06/22 01:02:45;;;;;;;13.97;12.77;;;;;;;19.88;70.68;93226.31;5052138;28;20188;-74
2023/06/22 01:05:13;;;;;;;13.23;12.23;;;;;;;20.01;71.73;93246.53;5051799;28;20230;-73
2023/06/22 01:08:09;;;;;;;13.07;11.97;;;;;;;19.95;72.92;93257.63;5052033;28;20272;-74
2023/06/22 01:11:13;;;;;;;14.03;12.83;;;;;;;19.88;73.29;93258.13;5052046;28;20224;-73
2023/06/22 01:13:50;;;;;;;13.23;12.23;;;;;;;19.85;72.11;93258.78;5052351;28;20199;-73
2023/06/22 01:16:31;;;;;;;14.47;13.37;;;;;;;19.43;73.47;93235.88;5051392;28;20224;-74
2023/06/22 01:19:09;;;;;;;13.20;12.00;;;;;;;19.60;72.42;93257.00;5052400;28;20222;-74
2023/06/22 01:21:35;;;;;;;17.13;13.03;;;;;;;19.81;72.68;93251.78;5072286;28;20288;-74
2023/06/22 01:24:26;;;;;;;13.23;12.13;;;;;;;19.94;72.95;93248.13;5071986;28;20193;-76
2023/06/22 01:27:30;;;;;;;14.17;12.83;;;;;;;19.42;74.30;93249.44;5072829;28;20226;-73
2023/06/22 01:30:00;;;;;;;13.67;12.37;;;;;;;19.46;74.45;93255.66;5087521;28;20257;-76
2023/06/22 01:32:30;;;;;;;13.50;12.40;;;;;;;19.49;74.07;93255.00;5072264;28;20262;-75
2023/06/22 01:34:57;;;;;;;15.10;13.63;;;;;;;19.51;72.67;93237.72;5071668;28;20217;-76
2023/06/22 01:37:23;;;;;;;13.73;12.63;;;;;;;19.49;73.87;93239.91;5072117;28;20176;-75
2023/06/22 01:39:48;;;;;;;13.97;12.87;;;;;;;19.60;74.03;93267.59;5071533;28;20234;-75
2023/06/22 01:42:14;;;;;;;13.07;12.07;;;;;;;19.52;73.76;93230.56;5071979;28;20266;-76
2023/06/22 01:44:40;;;;;;;14.80;13.50;;;;;;;19.64;73.74;93263.25;5074610;28;20226;-75
2023/06/22 01:47:06;;;;;;;13.20;12.27;;;;;;;19.68;73.77;93279.25;5082129;28;20253;-75
2023/06/22 01:49:32;;;;;;;13.80;12.53;;;;;;;19.64;73.47;93273.84;5060985;28;20234;-75
2023/06/22 01:51:58;;;;;;;14.27;13.17;;;;;;;19.59;72.93;93259.97;5071169;28;20217;-80
2023/06/22 01:54:23;;;;;;;12.57;11.57;;;;;;;19.36;73.22;93234.81;5071693;28;20238;-75
2023/06/22 01:56:49;;;;;;;13.10;12.07;;;;;;;19.63;72.71;93263.53;5071887;28;20202;-76
2023/06/22 01:59:26;;;;;;;14.10;12.83;;;;;;;19.67;72.62;93278.50;5084088;28;20178;-75
2023/06/22 02:02:04;;;;;;;13.20;12.10;;;;;;;19.47;72.42;93241.34;5080569;28;20202;-76
2023/06/22 02:04:54;;;;;;;14.60;13.40;;;;;;;19.71;73.60;93275.97;5069742;28;20219;-77
2023/06/22 02:07:23;;;;;;;14.70;13.50;;;;;;;19.61;73.94;93274.44;5071014;28;20176;-76
2023/06/22 02:09:52;;;;;;;13.93;12.90;;;;;;;19.64;74.32;93289.75;5070626;28;20281;-76
2023/06/22 02:12:22;;;;;;;14.83;13.63;;;;;;;19.47;75.48;93289.00;5082135;28;20202;-76
2023/06/22 02:14:48;;;;;;;14.43;13.17;;;;;;;19.37;75.42;93268.94;5070578;28;20260;-77
2023/06/22 02:17:14;;;;;;;14.50;13.30;;;;;;;19.28;76.18;93270.03;5071861;28;20342;-76
2023/06/22 02:19:42;;;;;;;13.60;12.50;;;;;;;19.38;76.15;93259.13;5071273;28;20257;-76
2023/06/22 02:22:08;;;;;;;14.07;12.97;;;;;;;19.44;76.67;93268.44;5083337;28;20219;-76
2023/06/22 02:24:34;;;;;;;14.47;13.20;;;;;;;19.36;76.69;93250.72;5071488;28;20229;-76
2023/06/22 02:27:01;;;;;;;14.40;13.10;;;;;;;19.42;77.67;93271.41;5071492;28;20190;-76
2023/06/22 02:29:27;;;;;;;13.90;12.53;;;;;;;19.40;77.87;93284.19;5070907;28;20218;-77
2023/06/22 02:31:53;;;;;;;13.20;12.13;;;;;;;19.25;77.81;93266.13;5071499;28;20202;-76
2023/06/22 02:34:19;;;;;;;15.70;14.27;;;;;;;19.30;77.93;93267.88;5070400;28;20253;-76
2023/06/22 02:36:51;;;;;;;15.93;14.63;;;;;;;19.39;78.21;93266.75;5076905;28;20697;-76
2023/06/22 02:39:22;;;;;;;15.50;13.90;;;;;;;19.34;78.69;93271.44;5070042;28;20182;-76
2023/06/22 02:41:52;;;;;;;13.83;12.63;;;;;;;19.28;79.01;93254.94;5069995;28;20218;-76
2023/06/22 02:44:18;;;;;;;15.30;14.00;;;;;;;19.34;79.47;93274.06;5070915;28;20215;-76
2023/06/22 02:46:44;;;;;;;13.57;12.43;;;;;;;19.29;79.49;93268.94;5077446;28;20183;-77
2023/06/22 02:49:10;;;;;;;14.50;13.27;;;;;;;19.19;79.78;93268.16;5072429;28;20173;-77
2023/06/22 02:51:39;;;;;;;14.23;13.13;;;;;;;19.09;80.28;93254.47;5070390;28;20178;-76
2023/06/22 02:54:05;;;;;;;14.63;13.43;;;;;;;19.19;79.79;93268.16;5087364;28;20228;-76
2023/06/22 02:56:30;;;;;;;15.83;14.33;;;;;;;19.25;80.33;93279.38;5075136;28;20186;-75
2023/06/22 02:59:00;;;;;;;14.27;13.17;;;;;;;19.14;80.87;93272.84;5092204;28;20218;-76
2023/06/22 03:01:27;;;;;;;14.00;12.90;;;;;;;19.42;80.23;93289.16;5057582;28;20235;-76
2023/06/22 03:03:53;;;;;;;15.10;13.53;;;;;;;19.57;79.66;93289.44;5070377;28;20208;-76
2023/06/22 03:06:23;;;;;;;15.90;14.33;;;;;;;19.81;78.75;93278.28;5070139;28;20256;-75
2023/06/22 03:08:52;;;;;;;16.47;14.87;;;;;;;20.03;77.82;93280.69;5071195;28;20190;-76
2023/06/22 03:11:17;;;;;;;15.53;13.97;;;;;;;20.31;76.86;93287.88;5077540;28;20217;-76
2023/06/22 03:13:43;;;;;;;14.93;13.53;;;;;;;20.18;76.74;93265.03;5073496;28;21871;-76
2023/06/22 03:16:08;;;;;;;16.40;14.87;;;;;;;20.23;77.08;93287.94;5052357;28;20742;-74
2023/06/22 03:18:34;;;;;;;15.80;14.37;;;;;;;20.22;77.60;93289.78;5056553;28;20267;-75
2023/06/22 03:21:02;;;;;;;17.73;14.30;;;;;;;20.31;77.08;93297.72;5078514;28;20317;-74
2023/06/22 03:23:28;;;;;;;17.73;14.17;;;;;;;20.45;77.12;93308.88;5074717;28;20199;-74
2023/06/22 03:25:55;;;;;;;15.23;13.83;;;;;;;20.54;76.47;93315.69;5078694;28;20233;-75
2023/06/22 03:28:21;;;;;;;15.90;14.17;;;;;;;20.62;76.61;93304.19;5073104;28;20179;-74
2023/06/22 03:30:46;;;;;;;15.57;14.27;;;;;;;20.85;76.02;93309.97;5069358;28;20293;-74
2023/06/22 03:33:12;;;;;;;16.20;14.60;;;;;;;20.81;74.73;93313.63;5070433;28;20198;-74
2023/06/22 03:35:38;;;;;;;16.57;15.17;;;;;;;21.08;74.06;93321.84;5069180;28;20322;-74
2023/06/22 03:38:03;;;;;;;16.63;15.13;;;;;;;21.33;73.03;93314.75;5069734;28;20184;-74
2023/06/22 03:40:29;;;;;;;17.03;15.30;;;;;;;21.13;73.67;93283.69;5069407;28;20244;-75
2023/06/22 03:42:55;;;;;;;14.93;13.40;;;;;;;21.11;74.27;93305.25;5058212;28;20195;-75
2023/06/22 03:45:20;;;;;;;16.13;14.43;;;;;;;21.23;74.27;93315.16;5078065;28;20283;-75
2023/06/22 03:47:45;;;;;;;17.17;15.37;;;;;;;21.45;73.91;93320.09;5069131;28;20679;-72
2023/06/22 03:50:11;;;;;;;16.20;14.73;;;;;;;21.32;74.07;93329.13;5069258;28;20228;-71
2023/06/22 03:52:36;;;;;;;16.92;14.38;;;;;;;21.58;72.53;93330.44;5063043;28;20184;-70
2023/06/22 03:55:02;;;;;;;15.57;14.17;;;;;;;21.80;71.37;93332.75;5070334;28;20235;-68
2023/06/22 03:57:27;;;;;;;15.23;13.93;;;;;;;21.94;70.74;93340.41;5068380;28;20196;-68
2023/06/22 03:59:56;;;;;;;18.30;16.50;;;;;;;21.30;71.36;93328.69;5067782;28;20239;-69
2023/06/22 04:02:21;;;;;;;17.58;15.98;;;;;;;20.76;74.27;93325.19;5071507;28;20220;-70
2023/06/22 04:04:47;;;;;;;16.50;14.95;;;;;;;21.22;72.49;93334.84;5070784;28;20253;-68
2023/06/22 04:07:12;;;;;;;18.05;15.50;;;;;;;21.94;70.33;93343.06;5074020;28;20284;-69
2023/06/22 04:09:38;;;;;;;20.92;16.10;;;;;;;22.03;69.84;93343.75;5071174;28;20223;-68
2023/06/22 04:12:03;;;;;;;16.48;15.07;;;;;;;21.85;68.90;93313.16;5073280;28;20190;-67
2023/06/22 04:14:29;;;;;;;18.67;16.73;;;;;;;22.20;68.36;93340.88;5078090;28;20226;-69
2023/06/22 04:16:54;;;;;;;17.60;15.80;;;;;;;22.15;68.98;93343.75;5073931;28;20187;-71
2023/06/22 04:19:19;;;;;;;18.85;16.73;;;;;;;22.11;70.01;93327.69;5071361;28;20295;-72
2023/06/22 04:21:45;;;;;;;23.90;17.00;;;;;;;22.12;70.13;93328.44;5072016;28;20232;-69
2023/06/22 04:24:14;;;;;;;20.65;18.55;;;;;;;22.45;69.41;93321.13;5070598;28;20435;-71
2023/06/22 04:26:41;;;;;;;18.58;16.58;;;;;;;22.67;67.96;93318.03;5071850;28;20194;-70
2023/06/22 04:29:08;;;;;;;18.27;16.17;;;;;;;22.81;67.59;93320.34;5071280;28;20200;-71
2023/06/22 04:31:37;;;;;;;18.35;14.98;;;;;;;23.01;67.23;93314.84;5071628;28;20192;-71
2023/06/22 04:34:07;;;;;;;17.13;15.50;;;;;;;23.82;65.43;93309.06;5071858;28;20182;-76
2023/06/22 04:36:37;;;;;;;16.65;14.82;;;;;;;25.81;58.74;93311.94;5071558;28;20181;-70
2023/06/22 04:39:12;;;;;;;16.80;15.13;;;;;;;25.98;57.56;93310.69;5064169;28;20284;-70
2023/06/22 04:41:41;;;;;;;21.50;15.60;;;;;;;25.15;60.49;93314.09;5076091;28;20211;-75
2023/06/22 04:44:24;;;;;;;17.48;15.77;;;;;;;24.96;62.03;93314.06;5075976;28;20187;-74
2023/06/22 04:46:53;;;;;;;18.27;15.75;;;;;;;23.87;65.07;93316.03;5072184;28;20183;-77
2023/06/22 04:49:21;;;;;;;17.60;15.88;;;;;;;24.03;65.42;93324.88;5059644;28;20187;-75
2023/06/22 04:51:47;;;;;;;19.23;15.25;;;;;;;23.42;68.69;93316.41;5077614;28;20195;-74
2023/06/22 04:54:13;;;;;;;19.63;15.52;;;;;;;23.88;66.99;93315.69;5080613;28;20188;-75
2023/06/22 04:56:40;;;;;;;24.23;15.88;;;;;;;23.82;66.76;93324.28;5087389;28;20185;-75
2023/06/22 04:59:06;;;;;;;17.80;16.00;;;;;;;23.55;67.08;93326.66;5078025;28;20202;-75
2023/06/22 05:01:31;;;;;;;18.38;16.55;;;;;;;23.55;68.33;93336.53;5071492;28;20222;-75
2023/06/22 05:04:00;;;;;;;17.90;16.10;;;;;;;23.64;66.23;93334.50;5071655;28;20901;-75
2023/06/22 05:06:26;;;;;;;18.25;15.48;;;;;;;24.20;63.56;93337.88;5070489;28;20223;-75
2023/06/22 05:08:58;;;;;;;22.13;17.33;;;;;;;25.14;61.53;93349.94;5087378;28;20182;-75
2023/06/22 05:11:27;;;;;;;17.55;15.80;;;;;;;25.66;58.01;93355.63;5070228;28;20313;-75
2023/06/22 05:13:53;;;;;;;22.17;16.77;;;;;;;25.84;57.04;93354.06;5071269;28;20191;-75
2023/06/22 05:16:23;;;;;;;17.33;15.57;;;;;;;26.08;56.89;93343.06;5079846;28;20223;-74
2023/06/22 05:18:50;;;;;;;18.85;16.45;;;;;;;28.44;48.53;93348.88;5072648;28;20781;-75
2023/06/22 05:21:15;;;;;;;17.15;15.23;;;;;;;28.31;48.77;93345.69;5070511;28;20233;-75
2023/06/22 05:23:41;;;;;;;19.05;15.80;;;;;;;27.50;50.81;93338.69;5072012;28;20195;-74
2023/06/22 05:26:09;;;;;;;19.15;15.40;;;;;;;25.57;57.83;93338.25;5071578;28;20251;-75
2023/06/22 05:28:34;;;;;;;20.48;15.60;;;;;;;24.94;59.32;93340.38;5072903;28;20206;-75
2023/06/22 05:31:00;;;;;;;17.77;15.30;;;;;;;24.94;60.45;93348.38;5070873;28;20744;-75
2023/06/22 05:33:25;;;;;;;17.65;14.93;;;;;;;26.61;54.21;93344.69;5072190;28;20906;-75
2023/06/22 05:35:50;;;;;;;17.02;15.27;;;;;;;27.45;51.17;93357.78;5071729;28;20243;-75
2023/06/22 05:38:16;;;;;;;16.40;14.80;;;;;;;29.69;46.31;93367.78;5072606;28;20177;-76
2023/06/22 05:40:41;;;;;;;17.15;15.35;;;;;;;33.64;36.91;93389.72;5071340;28;20232;-75
2023/06/22 05:43:06;;;;;;;16.65;15.13;;;;;;;35.91;31.85;93400.34;5072305;28;20197;-75
2023/06/22 05:45:32;;;;;;;18.70;14.10;;;;;;;36.79;30.76;93400.03;5053549;28;20213;-75
2023/06/22 05:47:57;;;;;;;17.50;13.93;;;;;;;36.85;30.15;93420.13;5070873;28;20185;-75
2023/06/22 05:50:23;;;;;;;17.85;13.85;;;;;;;37.86;28.31;93426.19;5070694;28;20213;-75
2023/06/22 05:52:48;;;;;;;18.20;14.43;;;;;;;37.61;28.04;93428.78;5071866;28;20209;-76
2023/06/22 05:55:15;;;;;;;18.10;13.68;;;;;;;38.22;27.56;93432.25;5074884;28;20229;-75
2023/06/22 05:57:40;;;;;;;21.98;14.25;;;;;;;39.72;25.07;93437.72;5080779;28;20773;-76
2023/06/22 06:00:11;;;;;;;16.10;12.90;;;;;;;40.01;24.55;93436.78;5070795;28;20260;-76
2023/06/22 06:02:36;;;;;;;17.10;13.40;;;;;;;40.54;24.59;93430.94;5072979;28;20185;-76
2023/06/22 06:05:03;;;;;;;16.65;12.57;;;;;;;38.58;25.99;93423.81;5071156;28;21771;-76
2023/06/22 06:07:29;;;;;;;18.27;13.55;;;;;;;40.14;24.10;93427.31;5072264;28;20331;-75
2023/06/22 06:09:54;;;;;;;20.73;13.90;;;;;;;39.42;25.04;93418.47;5052479;28;20225;-75
2023/06/22 06:12:20;;;;;;;20.48;14.63;;;;;;;37.00;28.58;93412.38;5083103;28;20211;-76
2023/06/22 06:14:45;;;;;;;15.05;13.65;;;;;;;38.48;26.61;93406.53;5070696;28;20217;-75
2023/06/22 06:17:10;;;;;;;15.55;13.93;;;;;;;40.57;24.07;93418.31;5075642;28;20270;-75
2023/06/22 06:19:36;;;;;;;20.50;13.50;;;;;;;39.11;25.87;93406.59;5062130;28;20228;-75
2023/06/22 06:22:01;;;;;;;15.27;13.27;;;;;;;40.01;25.04;93410.19;5084393;28;20208;-75
2023/06/22 06:24:27;;;;;;;16.85;13.25;;;;;;;40.79;24.03;93417.09;5070009;28;20241;-76
2023/06/22 06:26:52;;;;;;;17.67;13.80;;;;;;;38.58;26.36;93400.03;5071261;28;20181;-75
2023/06/22 06:29:17;;;;;;;21.08;13.68;;;;;;;40.47;24.18;93409.28;5069543;28;20181;-75
2023/06/22 06:31:43;;;;;;;20.83;13.00;;;;;;;41.15;23.53;93414.53;5074506;28;20193;-76
2023/06/22 06:34:08;;;;;;;14.68;13.25;;;;;;;40.55;24.55;93418.78;5079411;28;20181;-76
2023/06/22 06:36:33;;;;;;;14.20;12.82;;;;;;;41.09;23.25;93423.75;5069917;28;20200;-75
2023/06/22 06:38:59;;;;;;;14.57;13.10;;;;;;;40.24;24.48;93412.47;5069111;28;20189;-75
2023/06/22 06:41:24;;;;;;;16.58;13.45;;;;;;;40.86;24.28;93414.06;5072337;28;20220;-75
2023/06/22 06:43:50;;;;;;;14.10;12.48;;;;;;;40.03;25.12;93402.31;5070195;28;20695;-75
2023/06/22 06:46:15;;;;;;;13.27;11.90;;;;;;;41.25;23.52;93418.81;5069066;28;20217;-76
2023/06/22 06:48:40;;;;;;;14.27;12.77;;;;;;;40.22;24.96;93403.19;5078179;28;20188;-74
2023/06/22 06:51:09;;;;;;;14.90;13.27;;;;;;;39.64;24.86;93389.97;5072499;28;20232;-68
2023/06/22 06:53:35;;;;;;;13.93;12.63;;;;;;;34.06;33.51;93372.97;5069530;28;20191;-69
2023/06/22 06:56:00;;;;;;;16.83;13.30;;;;;;;33.91;35.12;93358.09;5071515;28;20224;-69
2023/06/22 06:58:26;;;;;;;16.83;14.20;;;;;;;34.13;33.90;93359.34;5071512;28;20885;-69
2023/06/22 07:00:51;;;;;;;19.38;13.63;;;;;;;33.22;35.44;93363.81;5066709;28;20232;-69
2023/06/22 07:03:16;;;;;;;17.58;13.75;;;;;;;31.26;39.59;93365.66;5068481;28;20250;-70
2023/06/22 07:05:42;;;;;;;19.98;14.05;;;;;;;30.82;43.51;93360.72;5068232;28;21462;-70
2023/06/22 07:08:07;;;;;;;21.40;14.73;;;;;;;30.78;43.15;93356.47;5067756;28;20199;-70
2023/06/22 07:10:33;;;;;;;17.25;15.50;;;;;;;30.41;43.25;93353.38;5068196;28;20232;-70
2023/06/22 07:12:58;;;;;;;16.77;15.10;;;;;;;29.03;46.17;93351.25;5074823;28;20207;-70
2023/06/22 07:15:23;;;;;;;16.95;15.35;;;;;;;28.73;47.90;93350.66;5068173;28;20273;-70
2023/06/22 07:17:49;;;;;;;20.38;15.85;;;;;;;29.46;47.25;93358.44;5068452;28;20185;-70
2023/06/22 07:20:14;;;;;;;18.67;16.35;;;;;;;29.38;46.95;93346.09;5067360;28;20256;-69
2023/06/22 07:22:44;;;;;;;19.13;15.77;;;;;;;28.97;51.35;93358.09;5068475;28;20189;-69
2023/06/22 07:25:10;;;;;;;19.73;14.63;;;;;;;29.30;47.15;93361.44;5050816;28;20236;-70
2023/06/22 07:27:42;;;;;;;16.75;14.68;;;;;;;28.54;50.37;93345.50;5074273;28;20185;-69
2023/06/22 07:30:09;;;;;;;15.82;14.13;;;;;;;28.65;47.55;93347.16;5068102;28;20999;-70
2023/06/22 07:32:35;;;;;;;16.05;14.43;;;;;;;28.68;45.83;93353.69;5075309;28;20193;-69
2023/06/22 07:35:02;;;;;;;16.65;14.95;;;;;;;28.55;47.76;93357.78;5067788;28;20229;-70
2023/06/22 07:37:28;;;;;;;17.17;15.48;;;;;;;28.07;53.71;93347.00;5068165;28;20192;-69
2023/06/22 07:39:58;;;;;;;16.40;14.80;;;;;;;27.89;52.77;93356.03;5067658;28;20221;-69
2023/06/22 07:42:27;;;;;;;18.63;15.35;;;;;;;28.57;48.17;93350.94;5068612;28;20518;-70
2023/06/22 07:44:53;;;;;;;17.73;16.13;;;;;;;28.10;51.75;93324.78;5067422;28;20236;-70
2023/06/22 07:47:19;;;;;;;17.63;15.85;;;;;;;28.20;52.12;93352.88;5069076;28;20193;-70
2023/06/22 07:49:45;;;;;;;16.13;14.70;;;;;;;28.15;51.67;93355.91;5069965;28;20296;-69
2023/06/22 07:52:10;;;;;;;19.17;17.17;;;;;;;28.36;50.23;93356.06;5073170;28;20220;-71
2023/06/22 07:54:36;;;;;;;18.52;16.73;;;;;;;28.31;51.56;93359.13;5073384;28;20236;-70
2023/06/22 07:57:01;;;;;;;17.55;15.88;;;;;;;28.41;52.36;93363.06;5072812;28;20181;-71
2023/06/22 07:59:27;;;;;;;18.05;16.42;;;;;;;28.92;48.84;93355.78;5076252;28;20228;-72
2023/06/22 08:01:52;;;;;;;17.52;15.82;;;;;;;29.31;48.68;93356.81;5078356;28;20281;-71
2023/06/22 08:04:17;;;;;;;18.08;16.33;;;;;;;29.12;49.31;93354.41;5071903;28;20184;-72
2023/06/22 08:06:43;;;;;;;21.23;17.30;;;;;;;29.48;47.93;93358.84;5071681;28;20192;-72
2023/06/22 08:09:09;;;;;;;20.80;17.67;;;;;;;29.67;45.75;93348.56;5070337;28;20193;-72
2023/06/22 08:11:34;;;;;;;18.52;16.65;;;;;;;28.84;49.85;93344.19;5078474;28;20191;-72
2023/06/22 08:13:59;;;;;;;17.38;15.73;;;;;;;29.06;48.40;93340.53;5073417;28;20194;-71
2023/06/22 08:16:25;;;;;;;17.83;16.00;;;;;;;29.17;47.37;93327.91;5071232;28;20226;-71
2023/06/22 08:18:50;;;;;;;21.13;17.02;;;;;;;29.43;48.12;93338.41;5071826;28;20269;-71
2023/06/22 08:21:16;;;;;;;26.38;16.77;;;;;;;29.67;47.18;93342.38;5074445;28;20230;-72
2023/06/22 08:23:42;;;;;;;19.73;15.65;;;;;;;29.16;46.85;93328.28;5074662;28;20178;-70
2023/06/22 08:26:07;;;;;;;17.65;15.63;;;;;;;29.33;48.73;93341.06;5073151;28;20259;-71
2023/06/22 08:28:33;;;;;;;17.20;15.55;;;;;;;29.35;48.35;93336.09;5071927;28;20193;-72
2023/06/22 08:31:00;;;;;;;16.48;14.93;;;;;;;29.09;48.54;93329.00;5072383;28;20221;-72
2023/06/22 08:33:28;;;;;;;16.60;15.05;;;;;;;29.74;47.61;93316.25;5071859;28;20874;-72
2023/06/22 08:35:55;;;;;;;20.70;15.10;;;;;;;29.49;47.29;93328.84;5055381;28;20245;-72
2023/06/22 08:38:20;;;;;;;17.45;15.85;;;;;;;30.03;48.38;93332.47;5050276;28;20193;-71
2023/06/22 08:40:46;;;;;;;17.73;15.85;;;;;;;29.84;46.07;93336.28;5066035;28;20229;-72
2023/06/22 08:43:11;;;;;;;16.75;14.98;;;;;;;30.60;45.67;93336.81;5071943;28;20207;-72
2023/06/22 08:45:36;;;;;;;16.10;14.35;;;;;;;30.59;44.72;93338.75;5071766;28;20296;-70
2023/06/22 08:48:02;;;;;;;15.95;14.32;;;;;;;29.72;46.42;93342.03;5066859;28;20181;-70
2023/06/22 08:50:27;;;;;;;17.08;15.27;;;;;;;30.13;45.57;93347.91;5071320;28;20221;-70
2023/06/22 08:52:53;;;;;;;15.82;14.38;;;;;;;30.51;43.53;93355.28;5072490;28;21129;-71
2023/06/22 08:55:18;;;;;;;16.48;14.90;;;;;;;30.51;43.28;93353.38;5072134;28;20229;-70
2023/06/22 08:57:43;;;;;;;15.88;14.45;;;;;;;29.87;45.08;93346.28;5058771;28;20164;-71
2023/06/22 09:00:16;;;;;;;17.73;15.23;;;;;;;29.01;46.96;93340.88;5071685;28;20230;-69
2023/06/22 09:02:42;;;;;;;17.20;15.05;;;;;;;29.37;48.52;93337.22;5064806;28;20219;-71
2023/06/22 09:05:08;;;;;;;17.35;15.55;;;;;;;28.40;50.70;93332.72;5072596;28;20786;-71
2023/06/22 09:07:34;;;;;;;16.55;14.90;;;;;;;28.73;52.13;93326.47;5054109;28;20186;-72
2023/06/22 09:09:59;;;;;;;17.42;14.77;;;;;;;28.94;48.33;93326.59;5073088;28;20237;-71
2023/06/22 09:12:27;;;;;;;17.40;15.73;;;;;;;28.17;52.44;93310.66;5067727;28;20212;-71
2023/06/22 09:14:53;;;;;;;19.55;14.77;;;;;;;28.74;50.22;93323.41;5072181;28;20248;-71
2023/06/22 09:17:18;;;;;;;17.00;15.52;;;;;;;28.64;51.67;93317.97;5072566;28;20192;-71
2023/06/22 09:19:44;;;;;;;17.05;14.57;;;;;;;29.00;52.97;93328.56;5057184;28;20341;-70
2023/06/22 09:22:09;;;;;;;18.20;16.33;;;;;;;28.95;47.44;93322.78;5074773;28;20269;-70
2023/06/22 09:24:35;;;;;;;16.65;14.70;;;;;;;28.65;48.90;93328.34;5071061;28;20228;-70
2023/06/22 09:27:00;;;;;;;15.27;13.77;;;;;;;29.03;47.25;93322.44;5071116;28;20192;-70
2023/06/22 09:29:25;;;;;;;15.57;14.10;;;;;;;29.22;48.46;93322.19;5071443;28;20256;-70
2023/06/22 09:31:53;;;;;;;15.65;13.60;;;;;;;28.85;49.42;93310.03;5072542;28;20245;-71
2023/06/22 09:34:20;;;;;;;16.48;14.93;;;;;;;28.57;49.59;93332.13;5073523;28;20177;-70
2023/06/22 09:36:46;;;;;;;15.73;14.15;;;;;;;28.75;49.16;93329.56;5067192;28;20197;-71
2023/06/22 09:39:11;;;;;;;16.63;15.07;;;;;;;28.91;50.84;93343.47;5067767;28;20205;-71
2023/06/22 09:41:37;;;;;;;15.07;13.77;;;;;;;29.10;46.74;93338.66;5071154;28;20654;-71
2023/06/22 09:44:02;;;;;;;15.93;14.32;;;;;;;29.44;44.60;93331.91;5068787;28;20193;-71
2023/06/22 09:46:28;;;;;;;15.77;14.27;;;;;;;29.45;43.93;93336.13;5074171;28;20182;-71
2023/06/22 09:48:54;;;;;;;15.30;13.68;;;;;;;28.46;48.38;93327.75;5063320;28;20182;-71
2023/06/22 09:51:21;;;;;;;16.85;14.05;;;;;;;28.86;47.98;93330.41;5074644;28;20652;-70
2023/06/22 09:53:47;;;;;;;15.70;14.05;;;;;;;28.56;46.95;93327.88;5070440;28;20192;-70
2023/06/22 09:56:14;;;;;;;15.82;14.35;;;;;;;28.86;46.92;93336.53;5070915;28;20244;-68
2023/06/22 09:58:41;;;;;;;15.30;13.90;;;;;;;29.45;47.02;93327.25;5072827;28;20197;-70
2023/06/22 10:01:07;;;;;;;15.65;14.10;;;;;;;29.85;44.54;93321.69;5073592;28;20224;-70
2023/06/22 10:03:32;;;;;;;15.30;13.88;;;;;;;29.83;42.12;93312.44;5070017;28;20200;-70
2023/06/22 10:05:57;;;;;;;16.55;14.52;;;;;;;29.58;45.28;93320.41;5069559;28;20236;-71
2023/06/22 10:08:23;;;;;;;15.10;13.57;;;;;;;29.49;40.76;93318.09;5071759;28;20203;-70
2023/06/22 10:10:48;;;;;;;15.32;14.10;;;;;;;29.37;42.20;93290.72;5054714;28;20324;-69
2023/06/22 10:13:14;;;;;;;14.40;13.13;;;;;;;29.42;43.44;93309.97;5049329;28;20188;-68
2023/06/22 10:15:40;;;;;;;14.70;13.32;;;;;;;29.57;40.62;93308.84;5049060;28;20229;-71
2023/06/22 10:18:05;;;;;;;13.95;12.75;;;;;;;29.18;41.87;93312.56;5052290;28;20213;-71
2023/06/22 10:20:31;;;;;;;16.52;14.48;;;;;;;28.54;43.97;93297.94;5052480;28;20359;-72
2023/06/22 10:22:56;;;;;;;14.80;13.57;;;;;;;28.90;42.32;93310.47;5052808;28;20198;-71
2023/06/22 10:25:22;;;;;;;15.65;14.25;;;;;;;28.97;45.29;93307.78;5049799;28;20237;-71
2023/06/22 10:27:48;;;;;;;15.82;12.73;;;;;;;29.24;41.83;93311.03;5047744;28;20974;-71
2023/06/22 10:30:14;;;;;;;15.13;13.48;;;;;;;29.32;41.56;93310.72;5049691;28;20230;-71
2023/06/22 10:32:40;;;;;;;14.32;13.10;;;;;;;29.92;40.34;93302.09;5058498;28;20217;-70
2023/06/22 10:35:06;;;;;;;15.88;13.38;;;;;;;29.91;39.38;93303.22;5042076;28;20241;-71
2023/06/22 10:37:32;;;;;;;13.88;12.68;;;;;;;30.03;41.12;93294.75;5051104;28;21104;-70
2023/06/22 10:39:57;;;;;;;13.57;12.38;;;;;;;30.14;40.90;93306.34;5051986;28;20225;-71
2023/06/22 10:42:23;;;;;;;15.38;13.88;;;;;;;29.90;40.59;93296.31;5049889;28;20212;-70
2023/06/22 10:44:48;;;;;;;14.63;13.43;;;;;;;29.86;40.71;93295.50;5050631;28;20226;-70
2023/06/22 10:47:14;;;;;;;15.07;13.68;;;;;;;30.16;39.36;93287.88;5050137;28;20236;-70
2023/06/22 10:49:39;;;;;;;14.68;13.27;;;;;;;29.87;39.93;93291.69;5049622;28;20352;-71
2023/06/22 10:52:07;;;;;;;15.82;14.32;;;;;;;29.82;39.89;93292.06;5051109;28;20184;-70
2023/06/22 10:54:33;;;;;;;15.13;13.82;;;;;;;29.49;40.32;93291.16;5051005;28;20240;-71
2023/06/22 10:56:59;;;;;;;15.50;13.90;;;;;;;29.63;40.74;93293.13;5054588;28;20194;-71
2023/06/22 10:59:25;;;;;;;15.20;13.88;;;;;;;29.29;40.85;93289.91;5045043;28;20282;-71
2023/06/22 11:01:51;;;;;;;14.98;13.68;;;;;;;29.51;41.85;93290.78;5050542;28;20214;-71
2023/06/22 11:04:17;;;;;;;15.57;14.18;;;;;;;29.83;39.81;93290.88;5049221;28;20197;-71
2023/06/22 11:06:43;;;;;;;15.13;13.82;;;;;;;29.68;42.02;93285.47;5060057;28;20197;-72
2023/06/22 11:09:08;;;;;;;14.88;13.65;;;;;;;29.78;42.06;93283.94;5055156;28;20194;-71
2023/06/22 11:11:34;;;;;;;15.20;13.75;;;;;;;29.83;42.75;93288.97;5063942;28;20178;-71
2023/06/22 11:13:59;;;;;;;16.20;14.68;;;;;;;29.73;42.26;93278.94;5051143;28;20203;-71
2023/06/22 11:16:24;;;;;;;15.13;13.73;;;;;;;30.28;40.18;93287.50;5048948;28;20297;-72